Saginaw, MN (55779)

6:07 AM CDT on October 01, 2014 (GMT -0500)
KMNDULUT16 | Change Station
CLOSE
Current Station
Personal Weather Station
Location: Canosia twp, Duluth, MN
Elevation: 1438 ft
Nearby Weather Stations

Elev 1438 ft 46.86 °N, 92.27 °W | Updated 11 seconds ago

Overcast
Overcast
45.3 °F
Feels Like 40 °F
N
9.8
Wind Variable Wind from NE
Gusts 10.7 mph

Today
High -- | Low -- °F
--% Chance of Precip.
Yesterday
High -- | Low -- °F
Precip. -- in
7:08 AM 6:49 PM
Waxing Crescent, 46% visible
Pressure 29.89 in
Visibility 10.0 miles
Clouds Overcast 800 ft
Windchill 40 °F
Dew Point 45 °F
Humidity 99%
Rainfall 0.00 in
Snow Depth Not available.
UV 0 out of 12
Pollen 1.20 out of 12
Air Quality Not available.
Flu Activity Not available.
METAR KDLH 011055Z 12012KT 10SM OVC008 08/06 A2986 RMK AO2 SLP122 T00830056

More Conditions Fewer Conditions

Pressure 29.89 in
Visibility 10.0 miles
Clouds Overcast 800 ft
Windchill 40 °F
Dew Point 45 °F
Humidity 99%
Rainfall 0.00 in
Snow Depth Not available.
UV 0 out of 12
Pollen 1.20 out of 12
Air Quality Not available.
Flu Activity Not available.
METAR KDLH 011055Z 12012KT 10SM OVC008 08/06 A2986 RMK AO2 SLP122 T00830056

More Conditions Fewer Conditions

10-Day Weather Forecast

Almanac

Astronomy

Oct. 01, 2014 Rise Set
Actual Time 7:08 AM CDT 6:49 PM CDT
Civil Twilight 6:38 AM CDT 7:19 PM CDT
Nautical Twilight 6:02 AM CDT 7:54 PM CDT
Astronomical Twilight 5:27 AM CDT 8:30 PM CDT
Moon 2:26 PM CDT No Moon Set
Length of Visible Light 12h 41m
Length of Day
11h 40m
Tomorrow will be 3m 18s shorter.
Waxing Crescent, 46% of the Moon is Illuminated
Today
Waxing Crescent
Oct 1
First Quarter
Oct 8
Full
Oct 15
Last Quarter
Oct 23
New

Today's Extremes

State Highs State Lows

Community

WunderPhotos

Upload Photos

1,757,910 photos uploaded!

WunderBlogs® & News

Nearby

Snow Depth

Station Depth Elevation
No new snow has been reported.

Earthquake Activity

City Distance Mag. Time & Date
No recent earthquake activity has been reported nearby.
Minimum magnitude displayed is 2.5.

Coastal Water Temperatures

Place Temperature
Duluth, MN 60.1 °F

Nearby Weather Stations